Time;durP1;ratioP1;P1;durP2;ratioP2;P2;SDS_P1;SDS_P2;PMS_P1;PMS_P2;Temp;Humidity;BMP_temperature;BMP_pressure;BME280_temperature;BME280_humidity;BME280_pressure;Samples;Min_cycle;Max_cycle;Signal;HPM_P1;HPM_P2
2023/07/05 00:00:41;;;;;;;18.67;8.90;;;17.30;98.10;;;;;;5015400;28;20397;-75
2023/07/05 00:03:06;;;;;;;14.70;8.30;;;17.20;98.10;;;;;;5015507;28;20057;-75
2023/07/05 00:05:36;;;;;;;14.02;8.07;;;17.10;98.30;;;;;;5033185;28;20044;-75
2023/07/05 00:08:02;;;;;;;14.88;8.00;;;17.10;98.40;;;;;;5031781;28;20036;-74
2023/07/05 00:10:27;;;;;;;18.13;8.65;;;17.00;98.80;;;;;;5032693;28;20420;-76
2023/07/05 00:12:53;;;;;;;17.52;8.60;;;17.00;98.80;;;;;;5031454;28;20117;-75
2023/07/05 00:15:18;;;;;;;17.80;9.88;;;17.00;98.90;;;;;;5018219;28;20079;-74
2023/07/05 00:17:44;;;;;;;15.27;8.68;;;16.90;99.10;;;;;;5018965;28;20500;-74
2023/07/05 00:20:10;;;;;;;17.65;9.38;;;16.90;99.30;;;;;;5035466;28;20036;-75
2023/07/05 00:22:36;;;;;;;17.55;8.77;;;16.90;99.50;;;;;;5035470;28;20033;-75
2023/07/05 00:25:02;;;;;;;16.45;8.30;;;16.90;99.70;;;;;;5035488;28;20030;-76
2023/07/05 00:27:28;;;;;;;18.63;8.77;;;16.90;99.90;;;;;;5035156;28;20469;-76
2023/07/05 00:29:54;;;;;;;11.45;6.55;;;16.90;99.90;;;;;;5035247;28;20405;-76
2023/07/05 00:32:20;;;;;;;16.65;8.75;;;16.90;99.90;;;;;;5018687;28;20033;-76
2023/07/05 00:34:46;;;;;;;16.45;8.80;;;16.90;99.90;;;;;;5018925;28;20033;-75
2023/07/05 00:37:12;;;;;;;20.95;8.68;;;16.90;99.90;;;;;;5036385;28;20021;-76
2023/07/05 00:39:38;;;;;;;16.60;9.32;;;16.90;99.90;;;;;;5036170;28;20515;-76
2023/07/05 00:42:04;;;;;;;15.60;7.85;;;16.90;99.90;;;;;;5018711;28;20537;-75
2023/07/05 00:44:30;;;;;;;14.20;7.90;;;16.90;99.90;;;;;;5018698;28;20025;-75
2023/07/05 00:47:02;;;;;;;16.08;7.80;;;16.90;99.90;;;;;;5035729;28;20600;-76
2023/07/05 00:49:32;;;;;;;17.38;8.60;;;16.90;99.90;;;;;;5036069;28;20068;-76
2023/07/05 00:52:11;;;;;;;14.27;7.40;;;16.90;99.90;;;;;;5035538;28;20021;-76
2023/07/05 00:54:50;;;;;;;12.88;7.30;;;16.80;99.90;;;;;;5035859;28;20037;-76
2023/07/05 00:57:21;;;;;;;18.10;7.22;;;16.80;99.90;;;;;;5034630;28;20057;-76
2023/07/05 00:59:50;;;;;;;12.10;7.07;;;16.80;99.90;;;;;;5034525;28;20378;-77
2023/07/05 01:02:16;;;;;;;12.50;6.60;;;16.80;99.90;;;;;;5035925;28;20112;-75
2023/07/05 01:04:42;;;;;;;11.75;6.68;;;16.80;99.90;;;;;;5035866;28;20053;-76
2023/07/05 01:07:08;;;;;;;12.15;5.30;;;16.80;99.90;;;;;;5018148;28;20116;-76
2023/07/05 01:09:33;;;;;;;9.77;5.13;;;16.80;99.90;;;;;;5034524;28;20385;-75
2023/07/05 01:12:02;;;;;;;11.35;5.53;;;16.70;99.90;;;;;;5034325;28;20026;-75
2023/07/05 01:14:59;;;;;;;10.20;4.90;;;16.80;99.90;;;;;;5035637;28;20489;-75
2023/07/05 01:17:43;;;;;;;9.27;4.25;;;16.80;99.90;;;;;;5035541;28;20104;-77
2023/07/05 01:20:36;;;;;;;9.20;4.18;;;16.70;99.90;;;;;;5034309;28;20025;-76
2023/07/05 01:23:25;;;;;;;7.40;3.92;;;16.70;99.90;;;;;;5034781;28;20060;-78
2023/07/05 01:26:09;;;;;;;9.23;4.22;;;16.80;99.90;;;;;;5045612;28;20037;-78
2023/07/05 01:28:38;;;;;;;;;;;16.70;99.90;;;;;;5034435;28;20087;-74
2023/07/05 01:31:22;;;;;;;7.45;3.28;;;16.80;99.90;;;;;;5034186;28;19999;-76
2023/07/05 01:34:05;;;;;;;8.30;3.22;;;16.80;99.90;;;;;;5033968;28;20056;-78
2023/07/05 01:36:32;;;;;;;7.72;3.17;;;16.80;99.90;;;;;;5035209;28;20021;-76
2023/07/05 01:38:58;;;;;;;9.48;3.25;;;16.80;99.90;;;;;;5017512;28;20028;-77
2023/07/05 01:41:24;;;;;;;7.50;3.78;;;16.80;99.90;;;;;;5032691;28;20034;-78
2023/07/05 01:43:50;;;;;;;9.57;4.35;;;16.80;99.90;;;;;;5017485;28;20063;-77
2023/07/05 01:46:19;;;;;;;6.90;3.30;;;16.70;99.90;;;;;;5033748;28;20025;-77
2023/07/05 01:49:02;;;;;;;8.15;3.97;;;16.80;99.90;;;;;;5033819;28;20029;-76
2023/07/05 01:51:49;;;;;;;7.45;3.83;;;16.80;99.90;;;;;;5033658;28;20064;-78
2023/07/05 01:54:30;;;;;;;8.52;3.35;;;16.80;99.90;;;;;;5033003;28;20136;-78
2023/07/05 01:57:16;;;;;;;7.47;3.80;;;16.80;99.90;;;;;;5035008;28;20079;-78
2023/07/05 01:59:57;;;;;;;8.82;3.83;;;16.80;99.90;;;;;;5033556;28;20025;-76
2023/07/05 02:02:28;;;;;;;7.85;3.67;;;16.80;99.90;;;;;;5050153;28;20021;-75
2023/07/05 02:04:56;;;;;;;8.90;3.78;;;16.70;99.90;;;;;;5033418;28;20541;-77
2023/07/05 02:07:26;;;;;;;8.13;3.72;;;16.80;99.90;;;;;;5037467;28;20063;-77
2023/07/05 02:09:52;;;;;;;8.63;3.30;;;16.80;99.90;;;;;;5054647;28;20384;-77
2023/07/05 02:12:18;;;;;;;5.68;3.13;;;16.80;99.90;;;;;;5053218;28;20061;-76
2023/07/05 02:14:43;;;;;;;5.50;2.90;;;16.80;99.90;;;;;;5020249;28;20492;-77
2023/07/05 02:17:09;;;;;;;8.85;3.10;;;16.80;99.90;;;;;;5054774;28;20404;-77
2023/07/05 02:19:34;;;;;;;6.60;2.90;;;16.80;99.90;;;;;;5053269;28;20040;-76
2023/07/05 02:22:00;;;;;;;4.93;2.53;;;16.80;99.90;;;;;;5036504;28;20036;-76
2023/07/05 02:24:25;;;;;;;5.25;2.45;;;16.80;99.90;;;;;;5053029;28;20017;-76
2023/07/05 02:26:54;;;;;;;8.75;2.90;;;16.80;99.90;;;;;;5053187;28;20029;-77
2023/07/05 02:29:20;;;;;;;5.57;2.20;;;16.80;99.90;;;;;;5053051;28;20086;-78
2023/07/05 02:31:46;;;;;;;6.65;2.67;;;16.80;99.90;;;;;;5036478;28;20107;-79
2023/07/05 02:34:11;;;;;;;5.13;2.22;;;16.80;99.90;;;;;;5019656;28;20040;-77
2023/07/05 02:36:38;;;;;;;5.00;2.38;;;16.80;99.90;;;;;;5052683;28;20028;-78
2023/07/05 02:39:04;;;;;;;6.10;2.20;;;16.80;99.90;;;;;;5053023;28;20025;-77
2023/07/05 02:41:29;;;;;;;5.50;2.20;;;16.80;99.90;;;;;;5052909;28;20033;-75
2023/07/05 02:43:55;;;;;;;5.28;2.08;;;16.80;99.90;;;;;;5052759;28;20037;-76
2023/07/05 02:46:23;;;;;;;4.35;1.88;;;16.70;99.90;;;;;;5036237;28;20073;-76
2023/07/05 02:48:48;;;;;;;4.32;2.00;;;16.70;99.90;;;;;;5036252;28;20376;-74
2023/07/05 02:51:14;;;;;;;4.45;1.70;;;16.70;99.90;;;;;;5036225;28;20033;-74
2023/07/05 02:53:40;;;;;;;4.45;1.40;;;16.70;99.90;;;;;;5019224;28;20049;-75
2023/07/05 02:56:06;;;;;;;5.10;1.95;;;16.70;99.90;;;;;;5036153;28;20090;-76
2023/07/05 02:58:32;;;;;;;4.43;1.73;;;16.60;99.90;;;;;;5035745;28;20086;-75
2023/07/05 03:00:57;;;;;;;5.28;1.95;;;16.60;99.90;;;;;;5035795;28;20458;-77
2023/07/05 03:03:23;;;;;;;5.30;1.92;;;16.60;99.90;;;;;;5035845;28;20033;-76
2023/07/05 03:05:57;;;;;;;6.30;2.13;;;16.60;99.90;;;;;;5035743;28;20500;-77
2023/07/05 03:08:25;;;;;;;8.25;3.08;;;16.60;99.90;;;;;;5052292;28;20021;-77
2023/07/05 03:10:53;;;;;;;5.20;2.75;;;16.50;99.90;;;;;;5036061;28;20025;-75
2023/07/05 03:13:18;;;;;;;4.82;2.25;;;16.50;99.90;;;;;;5052076;28;20029;-79
2023/07/05 03:15:44;;;;;;;5.38;2.75;;;16.40;99.90;;;;;;5035621;28;20032;-77
2023/07/05 03:18:10;;;;;;;7.47;2.70;;;16.30;99.90;;;;;;5035761;28;20021;-79
2023/07/05 03:20:38;;;;;;;5.90;2.95;;;16.20;99.40;;;;;;5035752;28;20025;-78
2023/07/05 03:23:04;;;;;;;5.70;2.65;;;16.10;99.10;;;;;;5053450;28;20028;-79
2023/07/05 03:25:29;;;;;;;4.97;2.50;;;16.00;99.00;;;;;;5052781;28;20538;-79
2023/07/05 03:27:55;;;;;;;5.97;2.42;;;16.00;98.60;;;;;;5053663;28;20083;-80
2023/07/05 03:30:22;;;;;;;5.10;2.17;;;15.80;98.30;;;;;;5035518;28;20120;-80
2023/07/05 03:32:49;;;;;;;6.45;2.28;;;15.80;98.40;;;;;;5052128;28;20055;-78
2023/07/05 03:35:15;;;;;;;6.25;2.05;;;15.80;98.30;;;;;;5052245;28;20013;-79
2023/07/05 03:37:41;;;;;;;6.78;2.10;;;15.70;98.50;;;;;;5052226;28;20369;-78
2023/07/05 03:40:08;;;;;;;5.70;2.92;;;15.70;98.60;;;;;;5035394;28;20040;-78
2023/07/05 03:42:35;;;;;;;4.85;2.38;;;15.60;98.40;;;;;;5035448;28;20040;-78
2023/07/05 03:45:00;;;;;;;5.97;2.25;;;15.60;98.50;;;;;;5053523;28;20044;-77
2023/07/05 03:47:29;;;;;;;5.65;2.35;;;15.50;98.50;;;;;;5018899;28;20033;-77
2023/07/05 03:49:55;;;;;;;6.35;2.58;;;15.50;98.60;;;;;;5034379;28;20065;-76
2023/07/05 03:52:21;;;;;;;8.20;3.20;;;15.50;98.30;;;;;;5055398;28;20115;-78
2023/07/05 03:54:47;;;;;;;7.03;2.67;;;15.40;98.40;;;;;;5055724;28;20033;-77
2023/07/05 03:57:12;;;;;;;5.57;2.28;;;15.30;98.30;;;;;;5055489;28;20029;-77
2023/07/05 03:59:39;;;;;;;6.10;2.67;;;15.20;98.40;;;;;;5022699;28;20029;-79
2023/07/05 04:02:05;;;;;;;5.72;2.25;;;15.20;98.40;;;;;;5055652;28;20112;-77
2023/07/05 04:04:31;;;;;;;4.38;1.92;;;15.20;98.40;;;;;;5053945;28;20025;-75
2023/07/05 04:06:57;;;;;;;4.80;1.98;;;15.20;98.50;;;;;;5037324;28;20503;-77
2023/07/05 04:09:25;;;;;;;7.68;2.58;;;15.20;98.40;;;;;;5037153;28;20151;-76
2023/07/05 04:11:51;;;;;;;7.00;2.45;;;15.10;98.20;;;;;;5054108;28;20031;-75
2023/07/05 04:14:17;;;;;;;7.70;2.40;;;15.00;98.10;;;;;;5053858;28;20033;-75
2023/07/05 04:16:43;;;;;;;10.18;2.67;;;15.10;98.30;;;;;;5038582;28;20399;-76
2023/07/05 04:19:09;;;;;;;5.10;2.40;;;15.00;98.20;;;;;;5036705;28;20021;-76
2023/07/05 04:21:35;;;;;;;7.60;2.80;;;15.00;98.00;;;;;;5021426;28;20098;-78
2023/07/05 04:24:01;;;;;;;9.13;3.20;;;14.90;98.10;;;;;;5030840;28;20041;-77
2023/07/05 04:26:28;;;;;;;6.75;2.67;;;14.90;98.10;;;;;;5035842;28;20084;-77
2023/07/05 04:28:54;;;;;;;9.27;3.40;;;14.80;98.30;;;;;;5034089;28;20037;-77
2023/07/05 04:31:28;;;;;;;5.68;2.50;;;14.80;98.20;;;;;;5035413;28;20037;-77
2023/07/05 04:33:54;;;;;;;8.18;2.83;;;14.90;98.30;;;;;;5036386;28;20038;-77
2023/07/05 04:36:20;;;;;;;7.82;3.17;;;14.80;98.20;;;;;;5036392;28;20032;-76
2023/07/05 04:38:46;;;;;;;9.90;3.63;;;14.80;98.10;;;;;;5035206;28;20389;-77
2023/07/05 04:41:11;;;;;;;7.95;3.42;;;14.80;98.10;;;;;;5018655;28;20028;-75
2023/07/05 04:43:37;;;;;;;8.55;3.67;;;14.80;98.00;;;;;;5018584;28;20025;-75
2023/07/05 04:46:03;;;;;;;7.13;3.20;;;14.80;98.10;;;;;;5035327;28;20120;-76
2023/07/05 04:48:30;;;;;;;8.43;3.75;;;14.80;98.10;;;;;;5034930;28;20061;-75
2023/07/05 04:50:57;;;;;;;9.73;3.65;;;14.80;98.10;;;;;;5034895;28;20108;-75
2023/07/05 04:53:25;;;;;;;7.57;3.22;;;14.80;98.10;;;;;;5034441;28;20050;-76
2023/07/05 04:55:57;;;;;;;7.70;3.50;;;14.80;98.00;;;;;;5036012;28;20025;-76
2023/07/05 04:58:24;;;;;;;8.38;3.55;;;14.80;97.80;;;;;;5034683;28;20032;-77
2023/07/05 05:00:50;;;;;;;9.13;4.07;;;14.80;97.90;;;;;;5018106;28;20033;-77
2023/07/05 05:03:21;;;;;;;8.15;3.55;;;14.90;97.90;;;;;;5018291;28;20033;-76
2023/07/05 05:05:52;;;;;;;9.45;2.83;;;14.90;97.90;;;;;;5034547;28;20025;-76
2023/07/05 05:08:19;;;;;;;8.60;4.10;;;14.90;97.90;;;;;;5034519;28;20465;-77
2023/07/05 05:10:48;;;;;;;6.90;3.30;;;14.90;97.90;;;;;;5018022;28;20397;-76
2023/07/05 05:13:14;;;;;;;7.55;3.08;;;15.00;98.00;;;;;;5035179;28;20028;-76
2023/07/05 05:15:40;;;;;;;8.20;3.47;;;15.00;97.90;;;;;;5034849;28;20030;-76
2023/07/05 05:18:07;;;;;;;7.85;3.55;;;15.00;97.80;;;;;;5017844;28;20017;-76
2023/07/05 05:20:33;;;;;;;7.20;3.08;;;15.10;97.80;;;;;;5035711;28;20025;-76
2023/07/05 05:22:59;;;;;;;9.48;3.03;;;15.20;97.80;;;;;;5034245;28;20048;-75
2023/07/05 05:25:26;;;;;;;6.35;2.78;;;15.20;97.30;;;;;;5035481;28;20474;-76
2023/07/05 05:27:51;;;;;;;8.63;2.88;;;15.30;97.20;;;;;;5034282;28;20025;-77
2023/07/05 05:30:17;;;;;;;7.82;2.83;;;15.40;96.90;;;;;;5035387;28;20036;-76
2023/07/05 05:32:45;;;;;;;7.82;3.53;;;15.40;96.80;;;;;;5034254;28;20029;-77
2023/07/05 05:35:10;;;;;;;7.63;2.75;;;15.40;96.80;;;;;;5034132;28;20033;-76
2023/07/05 05:37:36;;;;;;;7.57;2.83;;;15.40;96.50;;;;;;5035251;28;20112;-76
2023/07/05 05:40:02;;;;;;;6.00;2.78;;;15.40;96.60;;;;;;5034020;28;20030;-84
2023/07/05 05:42:29;;;;;;;9.43;3.50;;;15.40;96.10;;;;;;5017521;28;20033;-85
2023/07/05 05:44:55;;;;;;;6.18;2.72;;;15.50;95.90;;;;;;5035336;28;20034;-81
2023/07/05 05:47:20;;;;;;;10.98;3.45;;;15.50;96.00;;;;;;5034177;28;20036;-85
2023/07/05 05:49:46;;;;;;;7.10;3.08;;;15.50;95.90;;;;;;5035430;28;20474;-78
2023/07/05 05:52:11;;;;;;;10.02;2.80;;;15.60;95.40;;;;;;5034943;28;20030;-80
2023/07/05 05:54:37;;;;;;;9.50;3.30;;;15.60;94.90;;;;;;5034999;28;20511;-83
2023/07/05 05:57:03;;;;;;;9.40;2.65;;;15.60;94.70;;;;;;5035219;28;20104;-80
2023/07/05 05:59:29;;;;;;;6.43;2.95;;;15.60;94.60;;;;;;5017357;28;20068;-81
2023/07/05 06:01:54;;;;;;;7.32;2.92;;;15.70;94.20;;;;;;5033782;28;20030;-83
2023/07/05 06:04:20;;;;;;;6.82;3.05;;;15.70;94.10;;;;;;5035076;28;20029;-82
2023/07/05 06:06:46;;;;;;;9.82;3.05;;;15.70;94.20;;;;;;5016315;28;20130;-80
2023/07/05 06:09:16;;;;;;;6.50;2.40;;;15.60;94.10;;;;;;5034726;28;20064;-81
2023/07/05 06:11:42;;;;;;;8.02;2.33;;;15.60;94.30;;;;;;5034031;28;20086;-77
2023/07/05 06:14:09;;;;;;;7.03;2.45;;;15.60;93.60;;;;;;5034183;28;20120;-77
2023/07/05 06:16:35;;;;;;;8.32;2.50;;;15.50;93.80;;;;;;5033928;28;20034;-76
2023/07/05 06:19:00;;;;;;;6.65;2.53;;;15.60;93.70;;;;;;5053538;28;20642;-77
2023/07/05 06:21:26;;;;;;;4.93;1.55;;;15.60;93.80;;;;;;5036311;28;20040;-74
2023/07/05 06:23:52;;;;;;;6.70;2.22;;;15.70;93.90;;;;;;5036161;28;20075;-75
2023/07/05 06:26:18;;;;;;;7.00;2.42;;;15.80;93.60;;;;;;5054183;28;20068;-75
2023/07/05 06:28:44;;;;;;;7.78;2.10;;;15.80;93.30;;;;;;5027483;28;20064;-77
2023/07/05 06:31:10;;;;;;;6.28;2.03;;;15.80;93.20;;;;;;5041367;28;20388;-76
2023/07/05 06:33:36;;;;;;;6.63;2.33;;;15.80;93.40;;;;;;5023881;28;20116;-76
2023/07/05 06:36:02;;;;;;;7.95;2.00;;;15.70;93.50;;;;;;5019120;28;20441;-74
2023/07/05 06:38:29;;;;;;;5.75;2.35;;;15.60;93.60;;;;;;5032962;28;20509;-75
2023/07/05 06:40:55;;;;;;;7.95;2.80;;;15.60;94.10;;;;;;5039851;28;20056;-76
2023/07/05 06:43:22;;;;;;;8.25;2.50;;;15.40;94.40;;;;;;5026411;28;20481;-76
2023/07/05 06:45:52;;;;;;;7.50;2.45;;;15.30;94.90;;;;;;5042320;28;20017;-75
2023/07/05 06:48:19;;;;;;;5.15;2.05;;;15.20;95.80;;;;;;5036923;28;20410;-75
2023/07/05 06:50:50;;;;;;;5.90;2.08;;;15.10;96.30;;;;;;5033152;28;20041;-76
2023/07/05 06:53:15;;;;;;;8.32;1.80;;;15.00;96.70;;;;;;5032788;28;20451;-76
2023/07/05 06:55:41;;;;;;;6.70;2.40;;;14.90;97.00;;;;;;5015328;28;20029;-77
2023/07/05 06:58:07;;;;;;;15.52;2.10;;;14.90;97.20;;;;;;5005139;28;20029;-75
2023/07/05 07:00:33;;;;;;;4.68;1.70;;;14.80;97.40;;;;;;5041867;28;20469;-78
2023/07/05 07:02:58;;;;;;;7.13;2.03;;;14.60;97.60;;;;;;5042303;28;20119;-77
2023/07/05 07:05:24;;;;;;;5.82;1.70;;;14.60;98.30;;;;;;5041104;28;20168;-77
2023/07/05 07:07:53;;;;;;;5.72;1.70;;;14.40;98.70;;;;;;5042625;28;20033;-77
2023/07/05 07:10:18;;;;;;;4.82;1.58;;;14.40;99.20;;;;;;5032841;28;20036;-77
2023/07/05 07:12:44;;;;;;;10.80;1.33;;;14.30;99.60;;;;;;5051052;28;20033;-76
2023/07/05 07:15:10;;;;;;;5.35;1.80;;;14.30;99.30;;;;;;5043555;28;20029;-76
2023/07/05 07:17:35;;;;;;;4.38;1.10;;;14.20;99.50;;;;;;5016005;28;20108;-78
2023/07/05 07:20:01;;;;;;;5.18;0.90;;;14.20;99.50;;;;;;5033536;28;20048;-76
2023/07/05 07:22:26;;;;;;;5.00;1.17;;;14.20;99.40;;;;;;5031821;28;20032;-76
2023/07/05 07:24:52;;;;;;;3.55;1.00;;;14.20;99.40;;;;;;5014931;28;20492;-76
2023/07/05 07:27:18;;;;;;;3.38;1.00;;;14.20;99.30;;;;;;5031980;28;20124;-76
2023/07/05 07:29:44;;;;;;;4.38;0.90;;;14.20;99.60;;;;;;5033286;28;20108;-76
2023/07/05 07:32:10;;;;;;;4.88;0.60;;;14.10;99.30;;;;;;5015804;28;20057;-76
2023/07/05 07:34:36;;;;;;;3.38;0.93;;;14.10;99.30;;;;;;5040273;28;20044;-77
2023/07/05 07:37:02;;;;;;;5.03;0.93;;;14.20;99.40;;;;;;5052085;28;20079;-77
2023/07/05 07:39:29;;;;;;;4.65;0.73;;;14.30;99.30;;;;;;5051595;28;20104;-76
2023/07/05 07:41:55;;;;;;;6.28;1.13;;;14.20;99.30;;;;;;5053169;28;20032;-76
2023/07/05 07:44:21;;;;;;;4.00;1.52;;;14.30;99.40;;;;;;5053123;28;20040;-76
2023/07/05 07:46:47;;;;;;;5.75;0.90;;;14.40;99.50;;;;;;5053139;28;20374;-76
2023/07/05 07:49:13;;;;;;;4.07;0.70;;;14.50;99.50;;;;;;5051658;28;20067;-76
2023/07/05 07:51:44;;;;;;;5.78;1.02;;;14.60;99.60;;;;;;5053123;28;20036;-76
2023/07/05 07:54:20;;;;;;;6.05;1.13;;;14.60;99.60;;;;;;5051489;28;20064;-76
2023/07/05 07:56:47;;;;;;;4.50;1.23;;;14.70;99.70;;;;;;5052937;28;20086;-76
2023/07/05 07:59:14;;;;;;;5.97;1.77;;;14.70;99.90;;;;;;5044955;28;20029;-77
2023/07/05 08:01:40;;;;;;;12.30;1.98;;;14.70;99.90;;;;;;5025893;28;20025;-76
2023/07/05 08:04:09;;;;;;;5.60;2.00;;;14.50;99.90;;;;;;5024595;28;20385;-77
2023/07/05 08:06:40;;;;;;;10.35;2.45;;;14.40;99.90;;;;;;5039809;28;20030;-76
2023/07/05 08:09:09;;;;;;;9.82;2.70;;;14.20;99.90;;;;;;5053138;28;20114;-76
2023/07/05 08:11:36;;;;;;;8.63;3.00;;;14.00;99.90;;;;;;5051644;28;20049;-78
2023/07/05 08:14:01;;;;;;;9.70;3.20;;;13.90;99.90;;;;;;5041422;28;20040;-76
2023/07/05 08:16:27;;;;;;;11.82;3.33;;;13.70;99.90;;;;;;5032779;28;20029;-76
2023/07/05 08:18:53;;;;;;;9.45;2.90;;;13.60;99.90;;;;;;5032901;28;20067;-75
2023/07/05 08:21:19;;;;;;;12.20;3.28;;;13.40;99.90;;;;;;5032099;28;20084;-76
2023/07/05 08:23:45;;;;;;;7.15;3.50;;;13.40;99.90;;;;;;5031684;28;20037;-76
2023/07/05 08:26:11;;;;;;;9.25;2.95;;;13.30;99.90;;;;;;5031738;28;20041;-76
2023/07/05 08:28:37;;;;;;;7.53;3.22;;;13.30;99.90;;;;;;5032743;28;20038;-76
2023/07/05 08:31:05;;;;;;;8.82;3.50;;;13.30;99.90;;;;;;5031381;28;20082;-76
2023/07/05 08:33:32;;;;;;;12.52;3.50;;;13.30;99.90;;;;;;5032529;28;20109;-76
2023/07/05 08:36:15;;;;;;;9.45;3.50;;;13.30;99.90;;;;;;5035753;28;20036;-75
2023/07/05 08:38:52;;;;;;;9.70;4.03;;;13.30;99.90;;;;;;5037020;28;20067;-75
2023/07/05 08:41:50;;;;;;;9.45;3.88;;;13.30;99.90;;;;;;5036668;28;20092;-75
2023/07/05 08:44:25;;;;;;;9.02;4.25;;;13.40;99.90;;;;;;5036694;28;20087;-75
2023/07/05 08:47:01;;;;;;;8.88;5.10;;;13.60;99.90;;;;;;5036334;28;20030;-77
2023/07/05 08:49:35;;;;;;;10.43;4.57;;;13.70;99.90;;;;;;5036618;28;20056;-75
2023/07/05 08:52:02;;;;;;;5.90;3.90;;;13.80;99.90;;;;;;5036199;28;20037;-77
2023/07/05 08:54:32;;;;;;;9.50;3.80;;;14.00;99.90;;;;;;5035820;28;20045;-75
2023/07/05 08:57:04;;;;;;;10.10;3.90;;;14.20;99.90;;;;;;5018614;28;20026;-74
2023/07/05 08:59:41;;;;;;;6.72;3.38;;;14.30;99.90;;;;;;5036116;28;20025;-76
2023/07/05 09:02:09;;;;;;;8.40;3.05;;;14.40;99.90;;;;;;5036391;28;20029;-76
2023/07/05 09:04:35;;;;;;;8.30;3.33;;;14.50;99.90;;;;;;5035801;28;20033;-76
2023/07/05 09:07:48;;;;;;;11.57;3.28;;;14.60;99.90;;;;;;5017838;28;20036;-77
2023/07/05 09:10:41;;;;;;;6.70;2.63;;;14.70;99.90;;;;;;5032380;28;20095;-76
2023/07/05 09:13:19;;;;;;;9.98;3.70;;;14.80;99.90;;;;;;5035690;28;20064;-76
2023/07/05 09:15:55;;;;;;;9.57;3.78;;;14.80;99.90;;;;;;5038380;28;20114;-76
2023/07/05 09:18:48;;;;;;;10.02;3.00;;;14.90;99.90;;;;;;5051997;28;20121;-75
2023/07/05 09:21:31;;;;;;;9.10;3.50;;;14.90;99.90;;;;;;5047049;28;20061;-76
2023/07/05 09:24:28;;;;;;;7.05;3.35;;;15.00;99.90;;;;;;5053903;28;20052;-75
2023/07/05 09:27:03;;;;;;;15.55;3.70;;;15.00;99.90;;;;;;5052798;28;20362;-76
2023/07/05 09:29:43;;;;;;;9.40;3.03;;;15.00;99.90;;;;;;5054189;28;20064;-76
2023/07/05 09:32:16;;;;;;;10.45;3.00;;;15.10;99.90;;;;;;5054069;28;20029;-77
2023/07/05 09:34:55;;;;;;;11.73;2.42;;;15.10;99.90;;;;;;5054129;28;20069;-76
2023/07/05 09:37:26;;;;;;;9.95;2.20;;;15.20;99.90;;;;;;5053793;28;20496;-78
2023/07/05 09:40:11;;;;;;;14.13;2.50;;;15.30;99.90;;;;;;5055664;28;20017;-79
2023/07/05 09:42:40;;;;;;;;;;;15.30;99.90;;;;;;5054357;28;20029;-77
2023/07/05 09:45:14;;;;;;;11.98;2.17;;;15.30;99.90;;;;;;5053767;28;19947;-77
2023/07/05 09:47:41;;;;;;;8.80;2.20;;;15.40;99.90;;;;;;5053648;28;20428;-77
2023/07/05 09:50:13;;;;;;;10.75;2.15;;;15.50;99.90;;;;;;5055051;28;20032;-77
2023/07/05 09:52:39;;;;;;;10.82;1.60;;;15.50;99.90;;;;;;5054709;28;20037;-77
2023/07/05 09:55:12;;;;;;;6.88;1.83;;;15.50;99.90;;;;;;5054812;28;20029;-77
2023/07/05 09:57:38;;;;;;;7.10;1.60;;;15.40;99.90;;;;;;5055228;28;20417;-76
2023/07/05 10:00:23;;;;;;;8.00;1.33;;;15.10;99.90;;;;;;5053520;28;20322;-77
2023/07/05 10:02:51;;;;;;;11.60;2.10;;;14.90;99.90;;;;;;5054917;28;20025;-78
2023/07/05 10:05:27;;;;;;;7.25;2.08;;;14.70;99.90;;;;;;5053835;28;20052;-80
2023/07/05 10:07:56;;;;;;;5.22;1.75;;;14.50;99.90;;;;;;5053163;28;20492;-79
2023/07/05 10:10:27;;;;;;;8.32;2.60;;;14.30;99.90;;;;;;5053259;28;20480;-79
2023/07/05 10:13:01;;;;;;;17.00;3.70;;;14.30;99.90;;;;;;5053070;28;20028;-80
2023/07/05 10:15:27;;;;;;;13.68;3.63;;;14.20;99.90;;;;;;5053143;28;20388;-82
2023/07/05 10:17:55;;;;;;;11.18;3.60;;;14.00;99.90;;;;;;5053381;28;20115;-81
2023/07/05 10:20:52;;;;;;;14.63;3.72;;;13.90;99.90;;;;;;5036476;28;20470;-79
2023/07/05 10:23:23;;;;;;;13.13;3.72;;;13.70;99.90;;;;;;5053718;28;20036;-79
2023/07/05 10:25:51;;;;;;;12.35;3.60;;;13.60;99.90;;;;;;5054075;28;20029;-83
2023/07/05 10:28:26;;;;;;;14.63;4.28;;;13.50;99.90;;;;;;5054121;28;20031;-80
2023/07/05 10:30:54;;;;;;;14.38;4.53;;;13.40;99.90;;;;;;5052990;28;20029;-80
2023/07/05 10:33:27;;;;;;;17.55;4.35;;;13.40;99.90;;;;;;5054176;28;20110;-78
2023/07/05 10:35:59;;;;;;;11.98;4.03;;;13.40;99.90;;;;;;5052742;28;20029;-80
2023/07/05 10:38:31;;;;;;;14.75;4.68;;;13.40;99.90;;;;;;5054014;28;20032;-80
2023/07/05 10:41:11;;;;;;;10.55;3.58;;;13.50;99.90;;;;;;5054026;28;20025;-78
2023/07/05 10:43:37;;;;;;;16.80;4.40;;;13.50;99.90;;;;;;5053965;28;20017;-78
2023/07/05 10:46:03;;;;;;;12.05;4.35;;;13.60;99.90;;;;;;5052590;28;20539;-78
2023/07/05 10:48:41;;;;;;;16.17;5.20;;;13.60;99.90;;;;;;5039089;28;20045;-79
2023/07/05 10:51:20;;;;;;;15.35;4.28;;;13.70;99.90;;;;;;5033860;28;20036;-78
2023/07/05 10:53:56;;;;;;;13.70;3.90;;;13.80;99.90;;;;;;5033721;28;20445;-78
2023/07/05 10:56:26;;;;;;;16.73;2.95;;;13.90;99.90;;;;;;5043305;28;20476;-80
2023/07/05 10:59:18;;;;;;;14.15;2.85;;;14.00;99.90;;;;;;5052250;28;20469;-79
2023/07/05 11:02:25;;;;;;;8.25;3.25;;;14.10;99.90;;;;;;5053230;28;20083;-77
2023/07/05 11:04:52;;;;;;;8.63;2.25;;;14.10;99.90;;;;;;5052149;28;20455;-79
2023/07/05 11:07:21;;;;;;;8.18;2.53;;;14.30;99.90;;;;;;5052340;28;20094;-79
2023/07/05 11:09:46;;;;;;;10.40;1.98;;;14.50;99.90;;;;;;5052163;28;20025;-82
2023/07/05 11:12:27;;;;;;;10.57;2.40;;;14.80;99.90;;;;;;5053906;28;20025;-78
2023/07/05 11:14:55;;;;;;;10.68;1.50;;;15.30;99.90;;;;;;5052092;28;20040;-78
2023/07/05 11:17:28;;;;;;;5.57;1.27;;;15.70;99.90;;;;;;5053495;28;20021;-82
2023/07/05 11:19:54;;;;;;;5.32;1.40;;;15.90;99.90;;;;;;5053235;28;20060;-79
2023/07/05 11:22:39;;;;;;;10.95;1.30;;;16.00;99.90;;;;;;5035455;28;20442;-80
2023/07/05 11:25:09;;;;;;;7.28;1.08;;;16.10;98.80;;;;;;5052261;28;20041;-77
2023/07/05 11:27:34;;;;;;;5.95;0.90;;;16.40;97.40;;;;;;5053189;28;20056;-79
2023/07/05 11:30:00;;;;;;;9.48;1.40;;;16.90;98.30;;;;;;5053200;28;20037;-78
2023/07/05 11:32:48;;;;;;;6.88;1.00;;;17.40;93.90;;;;;;5053044;28;20037;-79
2023/07/05 11:35:45;;;;;;;7.93;2.13;;;17.80;92.80;;;;;;5053210;28;20033;-80
2023/07/05 11:38:37;;;;;;;8.40;1.45;;;18.50;87.00;;;;;;5053146;28;20028;-79
2023/07/05 11:41:07;;;;;;;10.25;1.27;;;19.10;85.30;;;;;;5051628;28;20021;-79
2023/07/05 11:43:53;;;;;;;7.80;1.05;;;19.50;80.50;;;;;;5051964;28;20025;-80
2023/07/05 11:46:58;;;;;;;7.75;0.82;;;19.80;78.50;;;;;;5053226;28;20078;-80
2023/07/05 11:49:42;;;;;;;3.67;0.93;;;20.20;75.30;;;;;;5041402;28;20057;-76
2023/07/05 11:52:38;;;;;;;8.02;0.90;;;20.40;73.90;;;;;;5034052;28;20041;-76
2023/07/05 11:55:14;;;;;;;7.22;0.90;;;21.00;73.40;;;;;;5020250;28;20045;-76
2023/07/05 11:57:42;;;;;;;5.50;0.70;;;21.30;70.90;;;;;;5033087;28;20092;-76
2023/07/05 12:00:18;;;;;;;4.72;1.00;;;21.50;69.00;;;;;;5031886;28;20104;-76
2023/07/05 12:03:05;;;;;;;4.53;0.80;;;21.30;67.70;;;;;;5033087;28;20030;-76
2023/07/05 12:05:33;;;;;;;7.78;1.30;;;21.10;68.00;;;;;;5040228;28;20025;-77
2023/07/05 12:08:07;;;;;;;8.35;1.05;;;21.40;67.90;;;;;;5050377;28;20029;-77
2023/07/05 12:10:34;;;;;;;7.07;1.20;;;21.70;65.50;;;;;;5053986;28;20056;-77
2023/07/05 12:13:02;;;;;;;4.50;0.80;;;21.90;64.80;;;;;;5054380;28;20112;-79
2023/07/05 12:15:29;;;;;;;7.40;1.50;;;21.60;64.60;;;;;;5055522;28;20385;-76
2023/07/05 12:17:55;;;;;;;6.70;1.48;;;21.10;65.50;;;;;;5054523;28;20017;-78
2023/07/05 12:20:28;;;;;;;6.22;1.23;;;20.70;70.00;;;;;;5055569;28;20056;-77
2023/07/05 12:22:56;;;;;;;7.40;1.25;;;20.10;72.60;;;;;;5056410;28;20037;-77
2023/07/05 12:25:24;;;;;;;5.93;1.10;;;19.60;74.40;;;;;;5055182;28;20072;-77
2023/07/05 12:27:51;;;;;;;5.07;1.15;;;19.20;75.50;;;;;;5039467;28;20024;-77
2023/07/05 12:30:19;;;;;;;4.82;1.27;;;19.00;76.10;;;;;;5055201;28;20044;-77
2023/07/05 12:32:51;;;;;;;6.30;1.33;;;18.70;77.50;;;;;;5038421;28;20053;-79
2023/07/05 12:35:20;;;;;;;8.13;1.85;;;18.50;79.20;;;;;;5056320;28;20035;-76
2023/07/05 12:37:48;;;;;;;6.53;1.45;;;18.40;81.70;;;;;;5056332;28;20028;-78
2023/07/05 12:40:20;;;;;;;7.45;1.88;;;18.10;82.80;;;;;;5055138;28;20025;-77
2023/07/05 12:43:04;;;;;;;8.45;1.98;;;17.90;83.90;;;;;;5056192;28;20469;-76
2023/07/05 12:45:33;;;;;;;5.97;1.30;;;17.70;84.70;;;;;;5056407;28;20029;-78
2023/07/05 12:48:25;;;;;;;8.88;1.60;;;17.50;86.00;;;;;;5053244;28;20029;-79
2023/07/05 12:51:22;;;;;;;6.50;1.08;;;17.30;87.20;;;;;;5035089;28;20045;-78
2023/07/05 12:53:52;;;;;;;5.78;1.67;;;17.10;88.70;;;;;;5042848;28;20099;-79
2023/07/05 12:56:42;;;;;;;7.75;1.75;;;16.80;89.10;;;;;;5043148;28;20040;-78
2023/07/05 12:59:26;;;;;;;5.68;1.48;;;16.60;90.20;;;;;;5050938;28;20021;-77
2023/07/05 13:01:52;;;;;;;7.68;1.25;;;16.40;90.70;;;;;;5042809;28;20055;-78